sensor_id;sensor_type;location;lat;lon;timestamp;temperature;humidity
13982;DHT22;7065;50.880;5.502;2023-03-14T00:02:22;9.70;99.90
13982;DHT22;7065;50.880;5.502;2023-03-14T00:04:47;9.70;99.90
13982;DHT22;7065;50.880;5.502;2023-03-14T00:07:14;9.80;99.90
13982;DHT22;7065;50.880;5.502;2023-03-14T00:09:39;9.80;99.90
13982;DHT22;7065;50.880;5.502;2023-03-14T00:12:05;9.80;99.90
13982;DHT22;7065;50.880;5.502;2023-03-14T00:14:33;9.80;99.90
13982;DHT22;7065;50.880;5.502;2023-03-14T00:16:59;9.80;99.90
13982;DHT22;7065;50.880;5.502;2023-03-14T00:19:24;9.80;99.90
13982;DHT22;7065;50.880;5.502;2023-03-14T00:21:50;9.90;99.90
13982;DHT22;7065;50.880;5.502;2023-03-14T00:24:16;9.90;99.90
13982;DHT22;7065;50.880;5.502;2023-03-14T00:26:41;9.90;99.90
13982;DHT22;7065;50.880;5.502;2023-03-14T00:29:07;9.90;99.90
13982;DHT22;7065;50.880;5.502;2023-03-14T00:31:33;9.90;99.90
13982;DHT22;7065;50.880;5.502;2023-03-14T00:33:58;9.90;99.90
13982;DHT22;7065;50.880;5.502;2023-03-14T00:36:25;9.90;99.90
13982;DHT22;7065;50.880;5.502;2023-03-14T00:38:51;9.90;99.90
13982;DHT22;7065;50.880;5.502;2023-03-14T00:41:22;9.90;99.90
13982;DHT22;7065;50.880;5.502;2023-03-14T00:43:48;9.90;99.90
13982;DHT22;7065;50.880;5.502;2023-03-14T00:46:14;9.90;99.90
13982;DHT22;7065;50.880;5.502;2023-03-14T00:48:40;9.90;99.90
13982;DHT22;7065;50.880;5.502;2023-03-14T00:51:07;9.80;99.90
13982;DHT22;7065;50.880;5.502;2023-03-14T00:53:37;9.80;99.90
13982;DHT22;7065;50.880;5.502;2023-03-14T00:56:06;9.80;99.90
13982;DHT22;7065;50.880;5.502;2023-03-14T00:58:32;9.80;99.90
13982;DHT22;7065;50.880;5.502;2023-03-14T01:00:58;9.80;99.90
13982;DHT22;7065;50.880;5.502;2023-03-14T01:03:23;9.80;99.90
13982;DHT22;7065;50.880;5.502;2023-03-14T01:05:50;9.80;99.90
13982;DHT22;7065;50.880;5.502;2023-03-14T01:08:16;9.80;99.90
13982;DHT22;7065;50.880;5.502;2023-03-14T01:10:41;9.80;99.90
13982;DHT22;7065;50.880;5.502;2023-03-14T01:13:08;9.80;99.90
13982;DHT22;7065;50.880;5.502;2023-03-14T01:15:34;9.70;99.90
13982;DHT22;7065;50.880;5.502;2023-03-14T01:18:00;9.70;99.90
13982;DHT22;7065;50.880;5.502;2023-03-14T01:20:27;9.70;99.90
13982;DHT22;7065;50.880;5.502;2023-03-14T01:22:53;9.70;99.90
13982;DHT22;7065;50.880;5.502;2023-03-14T01:25:18;9.70;99.90
13982;DHT22;7065;50.880;5.502;2023-03-14T01:27:44;9.70;99.90
13982;DHT22;7065;50.880;5.502;2023-03-14T01:30:11;9.70;99.90
13982;DHT22;7065;50.880;5.502;2023-03-14T01:32:37;9.70;99.90
13982;DHT22;7065;50.880;5.502;2023-03-14T01:35:04;9.70;99.90
13982;DHT22;7065;50.880;5.502;2023-03-14T01:37:29;9.60;99.90
13982;DHT22;7065;50.880;5.502;2023-03-14T01:39:55;9.70;99.90
13982;DHT22;7065;50.880;5.502;2023-03-14T01:42:21;9.70;99.90
13982;DHT22;7065;50.880;5.502;2023-03-14T01:44:55;9.70;99.90
13982;DHT22;7065;50.880;5.502;2023-03-14T01:47:21;9.70;99.90
13982;DHT22;7065;50.880;5.502;2023-03-14T01:49:59;9.70;99.90
13982;DHT22;7065;50.880;5.502;2023-03-14T01:52:34;9.70;99.90
13982;DHT22;7065;50.880;5.502;2023-03-14T01:55:09;9.70;99.90
13982;DHT22;7065;50.880;5.502;2023-03-14T01:57:40;9.70;99.90
13982;DHT22;7065;50.880;5.502;2023-03-14T02:00:11;9.80;99.90
13982;DHT22;7065;50.880;5.502;2023-03-14T02:02:41;9.80;99.90
13982;DHT22;7065;50.880;5.502;2023-03-14T02:05:08;9.80;99.90
13982;DHT22;7065;50.880;5.502;2023-03-14T02:07:36;9.80;99.90
13982;DHT22;7065;50.880;5.502;2023-03-14T02:10:05;9.90;99.90
13982;DHT22;7065;50.880;5.502;2023-03-14T02:12:32;9.90;99.90
13982;DHT22;7065;50.880;5.502;2023-03-14T02:14:58;9.90;99.90
13982;DHT22;7065;50.880;5.502;2023-03-14T02:17:24;9.90;99.90
13982;DHT22;7065;50.880;5.502;2023-03-14T02:19:57;9.90;99.90
13982;DHT22;7065;50.880;5.502;2023-03-14T02:22:26;9.90;99.90
13982;DHT22;7065;50.880;5.502;2023-03-14T02:27:23;9.90;99.90
13982;DHT22;7065;50.880;5.502;2023-03-14T02:30:02;9.80;99.90
13982;DHT22;7065;50.880;5.502;2023-03-14T02:32:32;9.80;99.90
13982;DHT22;7065;50.880;5.502;2023-03-14T02:35:01;9.70;99.90
13982;DHT22;7065;50.880;5.502;2023-03-14T02:37:35;9.60;99.90
13982;DHT22;7065;50.880;5.502;2023-03-14T02:40:02;9.50;99.90
13982;DHT22;7065;50.880;5.502;2023-03-14T02:42:30;9.50;99.90
13982;DHT22;7065;50.880;5.502;2023-03-14T02:47:49;9.40;99.90
13982;DHT22;7065;50.880;5.502;2023-03-14T02:50:20;9.40;99.90
13982;DHT22;7065;50.880;5.502;2023-03-14T02:52:47;9.30;99.90
13982;DHT22;7065;50.880;5.502;2023-03-14T02:55:13;9.30;99.90
13982;DHT22;7065;50.880;5.502;2023-03-14T02:57:38;9.20;99.90
13982;DHT22;7065;50.880;5.502;2023-03-14T03:00:04;9.20;99.90
13982;DHT22;7065;50.880;5.502;2023-03-14T03:02:30;9.20;99.90
13982;DHT22;7065;50.880;5.502;2023-03-14T03:04:56;9.10;99.90
13982;DHT22;7065;50.880;5.502;2023-03-14T03:07:22;9.10;99.90
13982;DHT22;7065;50.880;5.502;2023-03-14T03:09:48;9.10;99.90
13982;DHT22;7065;50.880;5.502;2023-03-14T03:12:13;9.10;99.90
13982;DHT22;7065;50.880;5.502;2023-03-14T03:14:39;9.10;99.90
13982;DHT22;7065;50.880;5.502;2023-03-14T03:17:05;9.10;99.90
13982;DHT22;7065;50.880;5.502;2023-03-14T03:19:31;9.10;99.90
13982;DHT22;7065;50.880;5.502;2023-03-14T03:21:57;9.10;99.90
13982;DHT22;7065;50.880;5.502;2023-03-14T03:24:24;9.10;99.90
13982;DHT22;7065;50.880;5.502;2023-03-14T03:26:50;9.10;99.90
13982;DHT22;7065;50.880;5.502;2023-03-14T03:29:16;9.20;99.90
13982;DHT22;7065;50.880;5.502;2023-03-14T03:31:41;9.20;99.90
13982;DHT22;7065;50.880;5.502;2023-03-14T03:34:07;9.20;99.90
13982;DHT22;7065;50.880;5.502;2023-03-14T03:36:33;9.20;99.90
13982;DHT22;7065;50.880;5.502;2023-03-14T03:38:59;9.30;99.90
13982;DHT22;7065;50.880;5.502;2023-03-14T03:41:25;9.30;99.90
13982;DHT22;7065;50.880;5.502;2023-03-14T03:43:51;9.30;99.90
13982;DHT22;7065;50.880;5.502;2023-03-14T03:46:16;9.30;99.90
13982;DHT22;7065;50.880;5.502;2023-03-14T03:48:42;9.20;99.90
13982;DHT22;7065;50.880;5.502;2023-03-14T03:51:12;9.20;99.90
13982;DHT22;7065;50.880;5.502;2023-03-14T03:53:39;9.30;99.90
13982;DHT22;7065;50.880;5.502;2023-03-14T03:56:05;9.20;99.90
13982;DHT22;7065;50.880;5.502;2023-03-14T03:58:31;9.20;99.90
13982;DHT22;7065;50.880;5.502;2023-03-14T04:00:57;9.20;99.90
13982;DHT22;7065;50.880;5.502;2023-03-14T04:03:23;9.30;99.90
13982;DHT22;7065;50.880;5.502;2023-03-14T04:06:01;9.30;99.90
13982;DHT22;7065;50.880;5.502;2023-03-14T04:08:28;9.30;99.90
13982;DHT22;7065;50.880;5.502;2023-03-14T04:10:55;9.30;99.90
13982;DHT22;7065;50.880;5.502;2023-03-14T04:13:21;9.30;99.90
13982;DHT22;7065;50.880;5.502;2023-03-14T04:15:47;9.30;99.90
13982;DHT22;7065;50.880;5.502;2023-03-14T04:18:13;9.30;99.90
13982;DHT22;7065;50.880;5.502;2023-03-14T04:20:38;9.30;99.90
13982;DHT22;7065;50.880;5.502;2023-03-14T04:23:04;9.30;99.90
13982;DHT22;7065;50.880;5.502;2023-03-14T04:25:30;9.30;99.90
13982;DHT22;7065;50.880;5.502;2023-03-14T04:27:55;9.20;99.90
13982;DHT22;7065;50.880;5.502;2023-03-14T04:30:21;9.20;99.90
13982;DHT22;7065;50.880;5.502;2023-03-14T04:32:47;9.20;99.90
13982;DHT22;7065;50.880;5.502;2023-03-14T04:35:14;9.20;99.90
13982;DHT22;7065;50.880;5.502;2023-03-14T04:37:40;9.20;99.90
13982;DHT22;7065;50.880;5.502;2023-03-14T04:40:10;9.20;99.90
13982;DHT22;7065;50.880;5.502;2023-03-14T04:42:36;9.30;99.90
13982;DHT22;7065;50.880;5.502;2023-03-14T04:45:02;9.30;99.90
13982;DHT22;7065;50.880;5.502;2023-03-14T04:47:28;9.30;99.90
13982;DHT22;7065;50.880;5.502;2023-03-14T04:49:54;9.30;99.90
13982;DHT22;7065;50.880;5.502;2023-03-14T04:52:20;9.30;99.90
13982;DHT22;7065;50.880;5.502;2023-03-14T04:54:45;9.20;99.90
13982;DHT22;7065;50.880;5.502;2023-03-14T04:57:11;9.20;99.90
13982;DHT22;7065;50.880;5.502;2023-03-14T04:59:37;9.20;99.90
13982;DHT22;7065;50.880;5.502;2023-03-14T05:02:02;9.20;99.90
13982;DHT22;7065;50.880;5.502;2023-03-14T05:04:28;9.20;99.90
13982;DHT22;7065;50.880;5.502;2023-03-14T05:06:54;9.20;99.90
13982;DHT22;7065;50.880;5.502;2023-03-14T05:09:20;9.20;99.90
13982;DHT22;7065;50.880;5.502;2023-03-14T05:11:46;9.20;99.90
13982;DHT22;7065;50.880;5.502;2023-03-14T05:14:11;9.20;99.90
13982;DHT22;7065;50.880;5.502;2023-03-14T05:16:37;9.20;99.90
13982;DHT22;7065;50.880;5.502;2023-03-14T05:19:03;9.20;99.90
13982;DHT22;7065;50.880;5.502;2023-03-14T05:21:29;9.20;99.90
13982;DHT22;7065;50.880;5.502;2023-03-14T05:23:55;9.20;99.90
13982;DHT22;7065;50.880;5.502;2023-03-14T05:26:21;9.20;99.90
13982;DHT22;7065;50.880;5.502;2023-03-14T05:28:46;9.20;99.90
13982;DHT22;7065;50.880;5.502;2023-03-14T05:31:12;9.20;99.90
13982;DHT22;7065;50.880;5.502;2023-03-14T05:33:38;9.20;99.90
13982;DHT22;7065;50.880;5.502;2023-03-14T05:36:04;9.20;99.90
13982;DHT22;7065;50.880;5.502;2023-03-14T05:38:29;9.20;99.90
13982;DHT22;7065;50.880;5.502;2023-03-14T05:40:55;9.20;99.90
13982;DHT22;7065;50.880;5.502;2023-03-14T05:43:21;9.20;99.90
13982;DHT22;7065;50.880;5.502;2023-03-14T05:45:47;9.20;99.90
13982;DHT22;7065;50.880;5.502;2023-03-14T05:48:13;9.20;99.90
13982;DHT22;7065;50.880;5.502;2023-03-14T05:50:38;9.30;99.90
13982;DHT22;7065;50.880;5.502;2023-03-14T05:53:04;9.30;99.90
13982;DHT22;7065;50.880;5.502;2023-03-14T05:55:30;9.30;99.90
13982;DHT22;7065;50.880;5.502;2023-03-14T05:57:55;9.30;99.90
13982;DHT22;7065;50.880;5.502;2023-03-14T06:00:22;9.30;99.90
13982;DHT22;7065;50.880;5.502;2023-03-14T06:02:48;9.30;99.90
13982;DHT22;7065;50.880;5.502;2023-03-14T06:05:13;9.30;99.90
13982;DHT22;7065;50.880;5.502;2023-03-14T06:07:39;9.30;99.90
13982;DHT22;7065;50.880;5.502;2023-03-14T06:10:05;9.30;99.90
13982;DHT22;7065;50.880;5.502;2023-03-14T06:12:31;9.40;99.90
13982;DHT22;7065;50.880;5.502;2023-03-14T06:14:57;9.40;99.90
13982;DHT22;7065;50.880;5.502;2023-03-14T06:17:22;9.40;99.90
13982;DHT22;7065;50.880;5.502;2023-03-14T06:19:48;9.40;99.90
13982;DHT22;7065;50.880;5.502;2023-03-14T06:22:14;9.40;99.90
13982;DHT22;7065;50.880;5.502;2023-03-14T06:24:40;9.50;99.90
13982;DHT22;7065;50.880;5.502;2023-03-14T06:27:05;9.40;99.90
13982;DHT22;7065;50.880;5.502;2023-03-14T06:29:31;9.50;99.90
13982;DHT22;7065;50.880;5.502;2023-03-14T06:31:57;9.50;99.90
13982;DHT22;7065;50.880;5.502;2023-03-14T06:34:23;9.50;99.90
13982;DHT22;7065;50.880;5.502;2023-03-14T06:36:48;9.50;99.90
13982;DHT22;7065;50.880;5.502;2023-03-14T06:39:14;9.50;99.90
13982;DHT22;7065;50.880;5.502;2023-03-14T06:41:40;9.60;99.90
13982;DHT22;7065;50.880;5.502;2023-03-14T06:44:06;9.50;99.90
13982;DHT22;7065;50.880;5.502;2023-03-14T06:46:32;9.50;99.90
13982;DHT22;7065;50.880;5.502;2023-03-14T06:48:57;9.60;99.90
13982;DHT22;7065;50.880;5.502;2023-03-14T06:51:23;9.60;99.90
13982;DHT22;7065;50.880;5.502;2023-03-14T06:53:49;9.70;99.90
13982;DHT22;7065;50.880;5.502;2023-03-14T06:56:14;9.80;99.90
13982;DHT22;7065;50.880;5.502;2023-03-14T06:58:40;9.80;99.90
13982;DHT22;7065;50.880;5.502;2023-03-14T07:01:10;9.90;99.90
13982;DHT22;7065;50.880;5.502;2023-03-14T07:03:40;9.90;99.90
13982;DHT22;7065;50.880;5.502;2023-03-14T07:06:06;10.00;99.90
13982;DHT22;7065;50.880;5.502;2023-03-14T07:08:31;10.00;99.90
13982;DHT22;7065;50.880;5.502;2023-03-14T07:10:57;10.00;99.90
13982;DHT22;7065;50.880;5.502;2023-03-14T07:13:23;10.10;99.90
13982;DHT22;7065;50.880;5.502;2023-03-14T07:15:48;10.10;99.90
13982;DHT22;7065;50.880;5.502;2023-03-14T07:18:14;10.10;99.90
13982;DHT22;7065;50.880;5.502;2023-03-14T07:20:40;10.20;99.90
13982;DHT22;7065;50.880;5.502;2023-03-14T07:23:06;10.20;99.90
13982;DHT22;7065;50.880;5.502;2023-03-14T07:25:32;10.30;99.90
13982;DHT22;7065;50.880;5.502;2023-03-14T07:27:57;10.30;99.90
13982;DHT22;7065;50.880;5.502;2023-03-14T07:30:23;10.20;99.90
13982;DHT22;7065;50.880;5.502;2023-03-14T07:32:49;10.20;99.90
13982;DHT22;7065;50.880;5.502;2023-03-14T07:35:14;10.20;99.90
13982;DHT22;7065;50.880;5.502;2023-03-14T07:37:40;10.10;99.90
13982;DHT22;7065;50.880;5.502;2023-03-14T07:40:06;10.10;99.90
13982;DHT22;7065;50.880;5.502;2023-03-14T07:42:32;10.10;99.90
13982;DHT22;7065;50.880;5.502;2023-03-14T07:44:58;10.00;99.90
13982;DHT22;7065;50.880;5.502;2023-03-14T07:47:23;10.00;99.90
13982;DHT22;7065;50.880;5.502;2023-03-14T07:49:49;10.00;99.90
13982;DHT22;7065;50.880;5.502;2023-03-14T07:52:15;10.00;99.90
13982;DHT22;7065;50.880;5.502;2023-03-14T07:54:40;10.00;99.90
13982;DHT22;7065;50.880;5.502;2023-03-14T07:57:06;10.00;99.90
13982;DHT22;7065;50.880;5.502;2023-03-14T07:59:32;10.00;99.90
13982;DHT22;7065;50.880;5.502;2023-03-14T08:01:58;10.00;99.90
13982;DHT22;7065;50.880;5.502;2023-03-14T08:04:24;9.90;99.90
13982;DHT22;7065;50.880;5.502;2023-03-14T08:06:49;9.90;99.90
13982;DHT22;7065;50.880;5.502;2023-03-14T08:09:15;9.60;99.90
13982;DHT22;7065;50.880;5.502;2023-03-14T08:11:41;9.10;99.90
13982;DHT22;7065;50.880;5.502;2023-03-14T08:14:06;8.90;99.90
13982;DHT22;7065;50.880;5.502;2023-03-14T08:16:32;8.70;99.90
13982;DHT22;7065;50.880;5.502;2023-03-14T08:18:58;8.50;99.90
13982;DHT22;7065;50.880;5.502;2023-03-14T08:21:24;8.40;99.90
13982;DHT22;7065;50.880;5.502;2023-03-14T08:23:49;8.30;99.90
13982;DHT22;7065;50.880;5.502;2023-03-14T08:26:15;8.20;99.90
13982;DHT22;7065;50.880;5.502;2023-03-14T08:28:41;8.10;99.90
13982;DHT22;7065;50.880;5.502;2023-03-14T08:31:06;8.00;99.90
13982;DHT22;7065;50.880;5.502;2023-03-14T08:33:32;8.00;99.90
13982;DHT22;7065;50.880;5.502;2023-03-14T08:36:00;7.90;99.90
13982;DHT22;7065;50.880;5.502;2023-03-14T08:38:26;7.90;99.90
13982;DHT22;7065;50.880;5.502;2023-03-14T08:40:57;7.80;99.90
13982;DHT22;7065;50.880;5.502;2023-03-14T08:43:24;7.80;99.90
13982;DHT22;7065;50.880;5.502;2023-03-14T08:45:49;7.70;99.90
13982;DHT22;7065;50.880;5.502;2023-03-14T08:48:15;7.60;99.90
13982;DHT22;7065;50.880;5.502;2023-03-14T08:50:41;7.60;99.90
13982;DHT22;7065;50.880;5.502;2023-03-14T08:53:06;7.50;99.90
13982;DHT22;7065;50.880;5.502;2023-03-14T08:55:32;7.40;99.90
13982;DHT22;7065;50.880;5.502;2023-03-14T08:57:58;7.30;99.90
13982;DHT22;7065;50.880;5.502;2023-03-14T09:00:23;7.20;99.90
13982;DHT22;7065;50.880;5.502;2023-03-14T09:02:50;7.20;99.90
13982;DHT22;7065;50.880;5.502;2023-03-14T09:05:16;7.20;99.90
13982;DHT22;7065;50.880;5.502;2023-03-14T09:07:41;7.30;99.90
13982;DHT22;7065;50.880;5.502;2023-03-14T09:10:08;7.30;99.90
13982;DHT22;7065;50.880;5.502;2023-03-14T09:12:34;7.30;99.90
13982;DHT22;7065;50.880;5.502;2023-03-14T09:15:00;7.30;99.90
13982;DHT22;7065;50.880;5.502;2023-03-14T09:17:25;7.40;99.90
13982;DHT22;7065;50.880;5.502;2023-03-14T09:19:52;7.40;99.90
13982;DHT22;7065;50.880;5.502;2023-03-14T09:22:18;7.50;99.90
13982;DHT22;7065;50.880;5.502;2023-03-14T09:24:43;7.50;99.90
13982;DHT22;7065;50.880;5.502;2023-03-14T09:27:09;7.60;99.90
13982;DHT22;7065;50.880;5.502;2023-03-14T09:29:35;7.60;99.90
13982;DHT22;7065;50.880;5.502;2023-03-14T09:32:00;7.60;99.90
13982;DHT22;7065;50.880;5.502;2023-03-14T09:34:27;7.60;99.90
13982;DHT22;7065;50.880;5.502;2023-03-14T09:36:52;7.70;99.90
13982;DHT22;7065;50.880;5.502;2023-03-14T09:39:18;7.70;99.90
13982;DHT22;7065;50.880;5.502;2023-03-14T09:41:47;7.80;99.90
13982;DHT22;7065;50.880;5.502;2023-03-14T09:44:26;7.80;99.90
13982;DHT22;7065;50.880;5.502;2023-03-14T09:46:54;7.70;99.90
13982;DHT22;7065;50.880;5.502;2023-03-14T09:49:30;7.70;99.90
13982;DHT22;7065;50.880;5.502;2023-03-14T09:51:59;7.80;99.90
13982;DHT22;7065;50.880;5.502;2023-03-14T09:54:36;7.70;99.90
13982;DHT22;7065;50.880;5.502;2023-03-14T09:57:04;7.80;99.90
13982;DHT22;7065;50.880;5.502;2023-03-14T09:59:31;7.80;99.90
13982;DHT22;7065;50.880;5.502;2023-03-14T10:02:18;7.80;99.90
13982;DHT22;7065;50.880;5.502;2023-03-14T10:04:46;7.70;99.90
13982;DHT22;7065;50.880;5.502;2023-03-14T10:07:15;7.60;99.90
13982;DHT22;7065;50.880;5.502;2023-03-14T10:09:44;7.60;99.90
13982;DHT22;7065;50.880;5.502;2023-03-14T10:12:10;7.60;99.90
13982;DHT22;7065;50.880;5.502;2023-03-14T10:14:37;7.50;99.90
13982;DHT22;7065;50.880;5.502;2023-03-14T10:17:12;7.50;99.90
13982;DHT22;7065;50.880;5.502;2023-03-14T10:19:54;7.50;99.90
13982;DHT22;7065;50.880;5.502;2023-03-14T10:22:22;7.40;99.90
13982;DHT22;7065;50.880;5.502;2023-03-14T10:24:54;7.30;99.90
13982;DHT22;7065;50.880;5.502;2023-03-14T10:27:23;7.10;99.90
13982;DHT22;7065;50.880;5.502;2023-03-14T10:29:57;7.10;99.90
13982;DHT22;7065;50.880;5.502;2023-03-14T10:32:37;7.10;99.90
13982;DHT22;7065;50.880;5.502;2023-03-14T10:37:59;7.30;99.90
13982;DHT22;7065;50.880;5.502;2023-03-14T10:40:39;7.40;99.90
13982;DHT22;7065;50.880;5.502;2023-03-14T10:43:11;7.40;99.90
13982;DHT22;7065;50.880;5.502;2023-03-14T10:45:40;7.50;99.90
13982;DHT22;7065;50.880;5.502;2023-03-14T10:53:17;7.50;99.90
13982;DHT22;7065;50.880;5.502;2023-03-14T10:55:44;7.30;99.90
13982;DHT22;7065;50.880;5.502;2023-03-14T10:58:28;7.20;99.90
13982;DHT22;7065;50.880;5.502;2023-03-14T11:01:00;7.00;99.90
13982;DHT22;7065;50.880;5.502;2023-03-14T11:03:31;6.90;99.90
13982;DHT22;7065;50.880;5.502;2023-03-14T11:11:21;6.80;99.90
13982;DHT22;7065;50.880;5.502;2023-03-14T11:22:23;6.70;99.90
13982;DHT22;7065;50.880;5.502;2023-03-14T11:25:01;6.80;99.90
13982;DHT22;7065;50.880;5.502;2023-03-14T11:27:53;6.80;99.90
13982;DHT22;7065;50.880;5.502;2023-03-14T11:33:44;7.00;99.90
13982;DHT22;7065;50.880;5.502;2023-03-14T11:36:15;7.20;99.90
13982;DHT22;7065;50.880;5.502;2023-03-14T11:38:58;7.30;99.90
13982;DHT22;7065;50.880;5.502;2023-03-14T11:41:34;7.40;99.90
13982;DHT22;7065;50.880;5.502;2023-03-14T11:44:04;7.50;99.90
13982;DHT22;7065;50.880;5.502;2023-03-14T11:46:41;7.60;99.90
13982;DHT22;7065;50.880;5.502;2023-03-14T11:51:52;7.30;99.90
13982;DHT22;7065;50.880;5.502;2023-03-14T11:56:57;6.90;99.90
13982;DHT22;7065;50.880;5.502;2023-03-14T11:59:29;6.80;99.90
13982;DHT22;7065;50.880;5.502;2023-03-14T12:10:29;6.60;99.90
13982;DHT22;7065;50.880;5.502;2023-03-14T12:12:56;6.60;99.90
13982;DHT22;7065;50.880;5.502;2023-03-14T12:15:23;6.60;99.90
13982;DHT22;7065;50.880;5.502;2023-03-14T12:17:54;6.50;99.90
13982;DHT22;7065;50.880;5.502;2023-03-14T12:20:25;6.60;99.90
13982;DHT22;7065;50.880;5.502;2023-03-14T12:23:01;6.70;99.90
13982;DHT22;7065;50.880;5.502;2023-03-14T12:25:32;6.80;99.90
13982;DHT22;7065;50.880;5.502;2023-03-14T12:35:47;7.20;99.90
13982;DHT22;7065;50.880;5.502;2023-03-14T12:40:50;6.90;99.90
13982;DHT22;7065;50.880;5.502;2023-03-14T12:43:40;6.70;99.90
13982;DHT22;7065;50.880;5.502;2023-03-14T12:48:49;6.00;99.90
13982;DHT22;7065;50.880;5.502;2023-03-14T12:51:17;5.80;99.90
13982;DHT22;7065;50.880;5.502;2023-03-14T12:53:48;5.60;99.90
13982;DHT22;7065;50.880;5.502;2023-03-14T13:02:00;5.60;99.90
13982;DHT22;7065;50.880;5.502;2023-03-14T13:04:34;5.50;99.90
13982;DHT22;7065;50.880;5.502;2023-03-14T13:07:03;5.50;99.90
13982;DHT22;7065;50.880;5.502;2023-03-14T13:11:56;5.40;99.90
13982;DHT22;7065;50.880;5.502;2023-03-14T13:14:28;5.40;99.90
13982;DHT22;7065;50.880;5.502;2023-03-14T13:16:54;5.40;99.90
13982;DHT22;7065;50.880;5.502;2023-03-14T13:19:30;5.40;99.90
13982;DHT22;7065;50.880;5.502;2023-03-14T13:22:16;5.50;99.90
13982;DHT22;7065;50.880;5.502;2023-03-14T13:24:44;5.50;99.90
13982;DHT22;7065;50.880;5.502;2023-03-14T13:27:20;5.60;99.90
13982;DHT22;7065;50.880;5.502;2023-03-14T13:29:48;5.60;99.90
13982;DHT22;7065;50.880;5.502;2023-03-14T13:32:26;5.60;99.90
13982;DHT22;7065;50.880;5.502;2023-03-14T13:34:56;5.70;99.90
13982;DHT22;7065;50.880;5.502;2023-03-14T13:37:24;5.70;99.90
13982;DHT22;7065;50.880;5.502;2023-03-14T13:39:51;5.60;99.90
13982;DHT22;7065;50.880;5.502;2023-03-14T13:42:17;5.60;99.90
13982;DHT22;7065;50.880;5.502;2023-03-14T13:44:43;5.60;99.90
13982;DHT22;7065;50.880;5.502;2023-03-14T13:47:15;5.60;99.90
13982;DHT22;7065;50.880;5.502;2023-03-14T13:49:42;5.60;99.90
13982;DHT22;7065;50.880;5.502;2023-03-14T13:52:31;5.60;99.90
13982;DHT22;7065;50.880;5.502;2023-03-14T13:54:59;5.60;99.90
13982;DHT22;7065;50.880;5.502;2023-03-14T13:57:26;5.60;99.90
13982;DHT22;7065;50.880;5.502;2023-03-14T14:00:02;5.70;99.90
13982;DHT22;7065;50.880;5.502;2023-03-14T14:02:32;5.70;99.90
13982;DHT22;7065;50.880;5.502;2023-03-14T14:04:59;5.60;99.90
13982;DHT22;7065;50.880;5.502;2023-03-14T14:07:25;5.60;99.90
13982;DHT22;7065;50.880;5.502;2023-03-14T14:09:52;5.60;99.90
13982;DHT22;7065;50.880;5.502;2023-03-14T14:12:54;5.70;99.90
13982;DHT22;7065;50.880;5.502;2023-03-14T14:15:28;5.70;99.90
13982;DHT22;7065;50.880;5.502;2023-03-14T14:17:58;5.60;99.90
13982;DHT22;7065;50.880;5.502;2023-03-14T14:20:51;5.70;99.90
13982;DHT22;7065;50.880;5.502;2023-03-14T14:23:22;5.70;99.90
13982;DHT22;7065;50.880;5.502;2023-03-14T14:25:58;5.80;99.90
13982;DHT22;7065;50.880;5.502;2023-03-14T14:28:30;5.80;99.90
13982;DHT22;7065;50.880;5.502;2023-03-14T14:36:39;5.90;99.90
13982;DHT22;7065;50.880;5.502;2023-03-14T14:39:16;5.90;99.90
13982;DHT22;7065;50.880;5.502;2023-03-14T14:41:43;5.80;99.90
13982;DHT22;7065;50.880;5.502;2023-03-14T14:44:13;5.80;99.90
13982;DHT22;7065;50.880;5.502;2023-03-14T14:46:42;5.70;99.90
13982;DHT22;7065;50.880;5.502;2023-03-14T14:49:18;5.70;99.90
13982;DHT22;7065;50.880;5.502;2023-03-14T14:51:48;5.70;99.90
13982;DHT22;7065;50.880;5.502;2023-03-14T14:56:40;5.70;99.90
13982;DHT22;7065;50.880;5.502;2023-03-14T14:59:07;5.70;99.90
13982;DHT22;7065;50.880;5.502;2023-03-14T15:01:43;5.70;99.90
13982;DHT22;7065;50.880;5.502;2023-03-14T15:04:12;5.80;99.90
13982;DHT22;7065;50.880;5.502;2023-03-14T15:06:39;5.80;99.90
13982;DHT22;7065;50.880;5.502;2023-03-14T15:09:10;5.70;99.90
13982;DHT22;7065;50.880;5.502;2023-03-14T15:11:35;5.70;99.90
13982;DHT22;7065;50.880;5.502;2023-03-14T15:14:02;5.80;99.90
13982;DHT22;7065;50.880;5.502;2023-03-14T15:16:30;5.70;99.90
13982;DHT22;7065;50.880;5.502;2023-03-14T15:19:15;5.80;99.90
13982;DHT22;7065;50.880;5.502;2023-03-14T15:21:42;5.80;99.90
13982;DHT22;7065;50.880;5.502;2023-03-14T15:24:09;5.80;99.90
13982;DHT22;7065;50.880;5.502;2023-03-14T15:26:35;5.80;99.90
13982;DHT22;7065;50.880;5.502;2023-03-14T15:29:00;5.70;99.90
13982;DHT22;7065;50.880;5.502;2023-03-14T15:31:26;5.70;99.90
13982;DHT22;7065;50.880;5.502;2023-03-14T15:33:52;5.70;99.90
13982;DHT22;7065;50.880;5.502;2023-03-14T15:36:27;5.70;99.90
13982;DHT22;7065;50.880;5.502;2023-03-14T15:38:54;5.70;99.90
13982;DHT22;7065;50.880;5.502;2023-03-14T15:41:20;5.70;99.90
13982;DHT22;7065;50.880;5.502;2023-03-14T15:43:46;5.70;99.90
13982;DHT22;7065;50.880;5.502;2023-03-14T15:46:12;5.70;99.90
13982;DHT22;7065;50.880;5.502;2023-03-14T15:48:38;5.60;99.90
13982;DHT22;7065;50.880;5.502;2023-03-14T15:51:04;5.60;99.90
13982;DHT22;7065;50.880;5.502;2023-03-14T15:53:30;5.60;99.90
13982;DHT22;7065;50.880;5.502;2023-03-14T15:55:56;5.50;99.90
13982;DHT22;7065;50.880;5.502;2023-03-14T15:58:21;5.50;99.90
13982;DHT22;7065;50.880;5.502;2023-03-14T16:00:48;5.50;99.90
13982;DHT22;7065;50.880;5.502;2023-03-14T16:03:14;5.40;99.90
13982;DHT22;7065;50.880;5.502;2023-03-14T16:05:40;5.30;99.90
13982;DHT22;7065;50.880;5.502;2023-03-14T16:08:06;5.20;99.90
13982;DHT22;7065;50.880;5.502;2023-03-14T16:10:32;5.20;99.90
13982;DHT22;7065;50.880;5.502;2023-03-14T16:12:58;5.10;99.90
13982;DHT22;7065;50.880;5.502;2023-03-14T16:15:24;5.10;99.90
13982;DHT22;7065;50.880;5.502;2023-03-14T16:17:53;5.10;99.90
13982;DHT22;7065;50.880;5.502;2023-03-14T16:20:20;5.00;99.90
13982;DHT22;7065;50.880;5.502;2023-03-14T16:22:46;5.00;99.90
13982;DHT22;7065;50.880;5.502;2023-03-14T16:25:13;5.00;99.90
13982;DHT22;7065;50.880;5.502;2023-03-14T16:27:39;5.10;99.90
13982;DHT22;7065;50.880;5.502;2023-03-14T16:30:05;5.00;99.90
13982;DHT22;7065;50.880;5.502;2023-03-14T16:32:31;5.00;99.90
13982;DHT22;7065;50.880;5.502;2023-03-14T16:34:57;5.00;99.90
13982;DHT22;7065;50.880;5.502;2023-03-14T16:37:23;5.00;99.90
13982;DHT22;7065;50.880;5.502;2023-03-14T16:39:50;5.00;99.90
13982;DHT22;7065;50.880;5.502;2023-03-14T16:42:16;5.00;99.90
13982;DHT22;7065;50.880;5.502;2023-03-14T16:44:42;5.00;99.90
13982;DHT22;7065;50.880;5.502;2023-03-14T16:47:08;5.00;99.90
13982;DHT22;7065;50.880;5.502;2023-03-14T16:49:34;5.00;99.90
13982;DHT22;7065;50.880;5.502;2023-03-14T16:51:59;5.00;99.90
13982;DHT22;7065;50.880;5.502;2023-03-14T16:54:25;4.90;99.90
13982;DHT22;7065;50.880;5.502;2023-03-14T16:56:51;4.90;99.90
13982;DHT22;7065;50.880;5.502;2023-03-14T16:59:18;4.90;99.90
13982;DHT22;7065;50.880;5.502;2023-03-14T17:01:44;4.90;99.90
13982;DHT22;7065;50.880;5.502;2023-03-14T17:04:10;4.90;99.90
13982;DHT22;7065;50.880;5.502;2023-03-14T17:06:37;4.90;99.90
13982;DHT22;7065;50.880;5.502;2023-03-14T17:09:04;4.80;99.90
13982;DHT22;7065;50.880;5.502;2023-03-14T17:11:31;4.80;99.90
13982;DHT22;7065;50.880;5.502;2023-03-14T17:13:58;4.80;99.90
13982;DHT22;7065;50.880;5.502;2023-03-14T17:16:24;4.70;99.90
13982;DHT22;7065;50.880;5.502;2023-03-14T17:18:50;4.70;99.90